Time;durP1;ratioP1;P1;durP2;ratioP2;P2;SDS_P1;SDS_P2;PMS_P1;PMS_P2;Temp;Humidity;BMP_temperature;BMP_pressure;BME280_temperature;BME280_humidity;BME280_pressure;Samples;Min_cycle;Max_cycle;Signal;HPM_P1;HPM_P2
2023/05/20 00:00:31;;;;;;;14.20;5.25;;;12.70;99.90;;;;;;5024525;28;20052;-61
2023/05/20 00:02:58;;;;;;;10.48;5.50;;;12.70;99.90;;;;;;5032826;28;20156;-63
2023/05/20 00:05:24;;;;;;;13.63;5.35;;;12.70;99.90;;;;;;5028670;28;20041;-63
2023/05/20 00:07:49;;;;;;;10.95;5.03;;;12.60;99.90;;;;;;5032772;28;20534;-62
2023/05/20 00:10:15;;;;;;;15.10;5.13;;;12.60;99.90;;;;;;5033172;28;20041;-61
2023/05/20 00:12:41;;;;;;;9.60;5.22;;;12.60;99.90;;;;;;5031875;28;20120;-62
2023/05/20 00:15:07;;;;;;;8.60;5.10;;;12.60;99.90;;;;;;5032551;28;20658;-62
2023/05/20 00:17:33;;;;;;;11.20;5.47;;;12.60;99.90;;;;;;5030560;28;20132;-63
2023/05/20 00:19:59;;;;;;;10.48;5.20;;;12.60;99.90;;;;;;5033111;28;20129;-62
2023/05/20 00:22:24;;;;;;;12.57;5.68;;;12.60;99.90;;;;;;5032742;28;20395;-62
2023/05/20 00:24:50;;;;;;;8.82;5.35;;;12.50;99.90;;;;;;5032516;28;20045;-62
2023/05/20 00:27:16;;;;;;;10.38;4.82;;;12.60;99.90;;;;;;5014665;28;20487;-62
2023/05/20 00:29:41;;;;;;;11.73;5.30;;;12.50;99.90;;;;;;5031765;28;20041;-60
2023/05/20 00:32:07;;;;;;;10.43;5.22;;;12.50;99.90;;;;;;5007045;28;20053;-62
2023/05/20 00:34:33;;;;;;;11.93;5.95;;;12.50;99.90;;;;;;5024643;28;20045;-62
2023/05/20 00:36:58;;;;;;;11.90;5.80;;;12.50;99.90;;;;;;5032905;28;20041;-62
2023/05/20 00:39:24;;;;;;;10.60;5.45;;;12.50;99.90;;;;;;5038498;28;20112;-60
2023/05/20 00:41:49;;;;;;;11.80;5.03;;;12.50;99.90;;;;;;5029456;28;20069;-63
2023/05/20 00:44:17;;;;;;;11.32;5.35;;;12.50;99.90;;;;;;5020691;28;20461;-62
2023/05/20 00:46:43;;;;;;;10.93;5.63;;;12.50;99.90;;;;;;5024759;28;20400;-62
2023/05/20 00:49:09;;;;;;;15.90;5.38;;;12.40;99.90;;;;;;5032819;28;20094;-62
2023/05/20 00:51:35;;;;;;;11.93;5.22;;;12.40;99.90;;;;;;5037009;28;20566;-62
2023/05/20 00:54:01;;;;;;;13.02;5.10;;;12.40;99.90;;;;;;5032334;28;20092;-62
2023/05/20 00:56:28;;;;;;;8.93;5.22;;;12.40;99.90;;;;;;5031160;28;20167;-62
2023/05/20 00:58:55;;;;;;;13.43;5.82;;;12.40;99.90;;;;;;5018906;28;20041;-61
2023/05/20 01:01:20;;;;;;;11.60;5.20;;;12.30;99.90;;;;;;5029610;28;20049;-61
2023/05/20 01:03:47;;;;;;;10.27;5.43;;;12.30;99.90;;;;;;5038598;28;20372;-62
2023/05/20 01:06:13;;;;;;;13.10;5.50;;;12.40;99.90;;;;;;5028604;28;20057;-62
2023/05/20 01:08:39;;;;;;;10.05;5.30;;;12.30;99.90;;;;;;5037627;28;20138;-61
2023/05/20 01:11:21;;;;;;;11.48;5.35;;;12.30;99.90;;;;;;5012872;28;20407;-62
2023/05/20 01:13:52;;;;;;;10.07;5.30;;;12.30;99.90;;;;;;5030704;28;20025;-62
2023/05/20 01:16:22;;;;;;;10.47;5.40;;;12.30;99.90;;;;;;5030355;28;20041;-62
2023/05/20 01:18:48;;;;;;;11.30;5.70;;;12.40;99.90;;;;;;5024280;28;20346;-62
2023/05/20 01:21:16;;;;;;;11.50;5.65;;;12.20;99.90;;;;;;5032005;28;20041;-62
2023/05/20 01:23:42;;;;;;;9.88;4.80;;;12.30;99.90;;;;;;5022413;28;20084;-61
2023/05/20 01:26:09;;;;;;;12.25;5.82;;;12.30;99.90;;;;;;5016111;28;20077;-61
2023/05/20 01:28:37;;;;;;;13.43;5.18;;;12.30;99.90;;;;;;5018852;28;20462;-62
2023/05/20 01:31:05;;;;;;;10.60;5.43;;;12.30;99.90;;;;;;5014290;28;20045;-62
2023/05/20 01:33:34;;;;;;;12.13;5.32;;;12.30;99.90;;;;;;5017120;28;20050;-62
2023/05/20 01:36:00;;;;;;;12.05;5.65;;;12.30;99.90;;;;;;5024207;28;20060;-62
2023/05/20 01:38:26;;;;;;;11.15;5.75;;;12.30;99.90;;;;;;5029880;28;20467;-62
2023/05/20 01:40:53;;;;;;;9.07;5.03;;;12.30;99.90;;;;;;5023162;28;20074;-62
2023/05/20 01:43:20;;;;;;;14.18;5.70;;;12.30;99.90;;;;;;5016331;28;20041;-62
2023/05/20 01:45:46;;;;;;;12.90;5.68;;;12.30;99.90;;;;;;5027443;28;20567;-62
2023/05/20 01:48:12;;;;;;;13.45;5.40;;;12.30;99.90;;;;;;5031757;28;20351;-61
2023/05/20 01:50:38;;;;;;;15.68;5.80;;;12.30;99.90;;;;;;5030535;28;20228;-62
2023/05/20 01:53:04;;;;;;;9.15;5.13;;;12.30;99.90;;;;;;5013738;28;20037;-62
2023/05/20 01:55:30;;;;;;;12.95;5.65;;;12.30;99.90;;;;;;5030291;28;20556;-61
2023/05/20 01:57:56;;;;;;;13.43;5.57;;;12.30;99.90;;;;;;5021450;28;20037;-61
2023/05/20 02:00:21;;;;;;;12.32;5.15;;;12.30;99.90;;;;;;5031362;28;20415;-62
2023/05/20 02:02:47;;;;;;;10.07;5.20;;;12.30;99.90;;;;;;5027846;28;20029;-62
2023/05/20 02:05:13;;;;;;;9.38;5.45;;;12.20;99.90;;;;;;5030293;28;20037;-61
2023/05/20 02:07:38;;;;;;;8.35;4.90;;;12.20;99.90;;;;;;5016393;28;20510;-62
2023/05/20 02:10:05;;;;;;;8.77;4.85;;;12.20;99.90;;;;;;5020107;28;20037;-62
2023/05/20 02:12:30;;;;;;;9.60;4.82;;;12.20;99.90;;;;;;5030928;28;20403;-62
2023/05/20 02:14:56;;;;;;;10.63;5.05;;;12.20;99.90;;;;;;5030637;28;20033;-62
2023/05/20 02:17:22;;;;;;;12.68;5.38;;;12.20;99.90;;;;;;5024112;28;20049;-62
2023/05/20 02:19:48;;;;;;;10.90;5.25;;;12.20;99.90;;;;;;5022875;28;20041;-62
2023/05/20 02:22:14;;;;;;;13.40;5.70;;;12.10;99.90;;;;;;5022565;28;20373;-62
2023/05/20 02:24:40;;;;;;;7.72;4.60;;;12.20;99.90;;;;;;5022491;28;20034;-62
2023/05/20 02:27:06;;;;;;;9.63;5.07;;;12.20;99.90;;;;;;5015834;28;20059;-62
2023/05/20 02:29:31;;;;;;;12.32;5.40;;;12.20;99.90;;;;;;5013238;28;20112;-63
2023/05/20 02:31:57;;;;;;;12.05;4.90;;;12.10;99.90;;;;;;5033137;28;20033;-61
2023/05/20 02:34:24;;;;;;;12.68;5.32;;;12.20;99.90;;;;;;5035773;28;20033;-62
2023/05/20 02:36:50;;;;;;;12.15;5.07;;;12.10;99.90;;;;;;5035396;28;20460;-62
2023/05/20 02:39:16;;;;;;;13.50;5.15;;;12.10;99.90;;;;;;5025595;28;20079;-62
2023/05/20 02:41:41;;;;;;;11.23;5.15;;;12.10;99.90;;;;;;5015357;28;20046;-62
2023/05/20 02:44:07;;;;;;;8.80;4.60;;;12.10;99.90;;;;;;5029469;28;20073;-62
2023/05/20 02:46:33;;;;;;;12.13;5.40;;;12.10;99.90;;;;;;5030199;28;20030;-62
2023/05/20 02:48:58;;;;;;;9.80;5.05;;;12.10;99.90;;;;;;5029392;28;20140;-62
2023/05/20 02:51:24;;;;;;;9.75;4.93;;;12.10;99.90;;;;;;5015573;28;20137;-62
2023/05/20 02:53:50;;;;;;;14.18;5.05;;;12.10;99.90;;;;;;5019472;28;20080;-62
2023/05/20 02:56:20;;;;;;;10.00;4.90;;;11.80;99.90;;;;;;5013819;28;20064;-62
2023/05/20 02:58:45;;;;;;;11.40;5.03;;;12.10;99.90;;;;;;5027371;28;20407;-62
2023/05/20 03:01:11;;;;;;;8.45;4.50;;;12.10;99.90;;;;;;5020476;28;20054;-62
2023/05/20 03:03:37;;;;;;;9.02;4.70;;;12.10;99.90;;;;;;5020026;28;20372;-62
2023/05/20 03:06:02;;;;;;;9.85;4.53;;;12.10;99.90;;;;;;5035234;28;20124;-62
2023/05/20 03:08:28;;;;;;;9.02;4.40;;;12.10;99.90;;;;;;5034970;28;20034;-62
2023/05/20 03:10:54;;;;;;;7.72;4.45;;;12.20;99.90;;;;;;5025793;28;20037;-62
2023/05/20 03:13:20;;;;;;;10.95;4.53;;;12.10;99.90;;;;;;5029326;28;20072;-61
2023/05/20 03:15:46;;;;;;;9.25;4.65;;;12.10;99.90;;;;;;5029053;28;20038;-62
2023/05/20 03:18:12;;;;;;;9.52;4.88;;;12.10;99.90;;;;;;5035019;28;20120;-62
2023/05/20 03:20:38;;;;;;;9.05;4.00;;;12.10;99.90;;;;;;5032176;28;20045;-62
2023/05/20 03:23:05;;;;;;;10.68;4.70;;;12.00;99.90;;;;;;5028614;28;20096;-63
2023/05/20 03:25:31;;;;;;;8.60;4.43;;;12.10;99.90;;;;;;5008896;28;20045;-61
2023/05/20 03:27:59;;;;;;;6.93;4.05;;;12.10;99.90;;;;;;5021432;28;20037;-62
2023/05/20 03:30:27;;;;;;;9.82;4.70;;;12.10;99.90;;;;;;5029548;28;20072;-62
2023/05/20 03:32:55;;;;;;;8.98;4.35;;;12.10;99.90;;;;;;5028158;28;20053;-61
2023/05/20 03:35:20;;;;;;;9.20;4.10;;;12.10;99.90;;;;;;5003710;28;20504;-62
2023/05/20 03:37:46;;;;;;;12.82;4.40;;;12.10;99.90;;;;;;5029580;28;20072;-62
2023/05/20 03:40:11;;;;;;;8.80;4.28;;;12.10;99.90;;;;;;5033421;28;20491;-62
2023/05/20 03:42:37;;;;;;;11.05;4.57;;;12.10;99.90;;;;;;5017555;28;20034;-62
2023/05/20 03:45:03;;;;;;;11.40;4.78;;;12.10;99.90;;;;;;5028875;28;20037;-62
2023/05/20 03:47:29;;;;;;;8.05;4.40;;;12.10;99.90;;;;;;5010664;28;20038;-62
2023/05/20 03:49:55;;;;;;;8.10;4.38;;;12.10;99.90;;;;;;5029923;28;20496;-62
2023/05/20 03:52:20;;;;;;;7.38;4.47;;;12.10;99.90;;;;;;5030017;28;20045;-62
2023/05/20 03:54:47;;;;;;;7.97;4.40;;;12.00;99.90;;;;;;5015510;28;20040;-62
2023/05/20 03:57:13;;;;;;;6.97;3.72;;;12.00;99.90;;;;;;5007563;28;20535;-62
2023/05/20 03:59:38;;;;;;;8.20;3.90;;;12.00;99.90;;;;;;5012398;28;20037;-62
2023/05/20 04:02:05;;;;;;;7.35;4.03;;;12.00;99.90;;;;;;5031973;28;20038;-62
2023/05/20 04:04:31;;;;;;;9.88;4.43;;;12.00;99.90;;;;;;5029567;28;20494;-62
2023/05/20 04:06:59;;;;;;;8.18;4.28;;;11.90;99.90;;;;;;5004424;28;20045;-62
2023/05/20 04:09:25;;;;;;;10.98;3.83;;;12.00;99.90;;;;;;5005022;28;20064;-62
2023/05/20 04:11:51;;;;;;;7.00;3.90;;;12.00;99.90;;;;;;5020653;28;20033;-62
2023/05/20 04:14:17;;;;;;;11.02;4.43;;;11.90;99.90;;;;;;5026404;28;20041;-62
2023/05/20 04:16:44;;;;;;;7.50;4.03;;;12.00;99.90;;;;;;5020722;28;20080;-62
2023/05/20 04:19:10;;;;;;;8.35;4.03;;;12.00;99.90;;;;;;5019372;28;20072;-62
2023/05/20 04:21:36;;;;;;;8.13;4.35;;;11.90;99.90;;;;;;5030937;28;20037;-62
2023/05/20 04:24:01;;;;;;;7.47;3.88;;;12.00;99.90;;;;;;5033113;28;20111;-62
2023/05/20 04:26:27;;;;;;;8.57;4.07;;;12.00;99.90;;;;;;5021437;28;20033;-62
2023/05/20 04:28:54;;;;;;;9.43;4.32;;;12.00;99.90;;;;;;5008463;28;20407;-62
2023/05/20 04:31:25;;;;;;;8.02;3.67;;;12.00;99.90;;;;;;5017936;28;20124;-62
2023/05/20 04:33:52;;;;;;;7.63;3.78;;;12.10;99.90;;;;;;5021425;28;20046;-62
2023/05/20 04:36:17;;;;;;;9.38;3.80;;;12.00;99.90;;;;;;5016504;28;20534;-62
2023/05/20 04:38:43;;;;;;;10.55;3.90;;;12.10;99.90;;;;;;5033080;28;20081;-62
2023/05/20 04:41:09;;;;;;;7.28;3.63;;;12.00;99.90;;;;;;5033520;28;20073;-62
2023/05/20 04:43:37;;;;;;;7.85;3.80;;;12.10;99.90;;;;;;5032783;28;20535;-62
2023/05/20 04:46:04;;;;;;;10.88;4.35;;;12.00;99.90;;;;;;5032899;28;20412;-62
2023/05/20 04:48:31;;;;;;;8.55;4.20;;;12.00;99.90;;;;;;5032364;28;20057;-62
2023/05/20 04:50:56;;;;;;;8.93;3.72;;;12.00;99.90;;;;;;5033141;28;20119;-62
2023/05/20 04:53:22;;;;;;;7.80;3.88;;;12.00;99.90;;;;;;5018094;28;20088;-62
2023/05/20 04:55:55;;;;;;;6.22;3.75;;;12.00;99.90;;;;;;5015461;28;20499;-62
2023/05/20 04:58:23;;;;;;;7.03;3.70;;;12.00;99.90;;;;;;5020173;28;20203;-62
2023/05/20 05:00:50;;;;;;;6.07;3.35;;;12.00;99.90;;;;;;5031970;28;20052;-62
2023/05/20 05:03:16;;;;;;;6.57;3.50;;;12.00;99.90;;;;;;5033443;28;20042;-62
2023/05/20 05:05:42;;;;;;;6.47;3.60;;;12.00;99.90;;;;;;5027884;28;20127;-62
2023/05/20 05:08:10;;;;;;;6.40;3.50;;;12.00;99.90;;;;;;5033021;28;20077;-62
2023/05/20 05:10:36;;;;;;;7.07;3.30;;;12.00;99.90;;;;;;5016195;28;20053;-62
2023/05/20 05:13:01;;;;;;;7.80;3.33;;;12.00;99.90;;;;;;5033065;28;20049;-62
2023/05/20 05:15:27;;;;;;;6.63;3.40;;;12.00;99.90;;;;;;5032470;28;20049;-62
2023/05/20 05:17:53;;;;;;;5.97;3.33;;;12.00;99.90;;;;;;5016646;28;20052;-62
2023/05/20 05:20:19;;;;;;;7.78;3.50;;;12.00;99.90;;;;;;5032510;28;20042;-62
2023/05/20 05:22:45;;;;;;;6.28;3.42;;;12.00;99.90;;;;;;5032381;28;20043;-62
2023/05/20 05:25:11;;;;;;;7.60;3.13;;;12.00;99.90;;;;;;5032057;28;20037;-62
2023/05/20 05:27:37;;;;;;;7.07;3.30;;;12.00;99.90;;;;;;5032760;28;20040;-62
2023/05/20 05:30:05;;;;;;;7.57;3.42;;;12.00;99.90;;;;;;5032246;28;20104;-63
2023/05/20 05:32:31;;;;;;;6.32;2.90;;;12.00;99.90;;;;;;5063400;22;20036;-62
2023/05/20 05:34:57;;;;;;;6.60;3.40;;;12.00;99.90;;;;;;5041985;28;20471;-62
2023/05/20 05:37:22;;;;;;;5.90;2.97;;;12.00;99.90;;;;;;5059007;28;20043;-61
2023/05/20 05:39:48;;;;;;;8.50;3.25;;;12.10;99.90;;;;;;5063682;28;20510;-62
2023/05/20 05:42:14;;;;;;;8.73;3.15;;;12.10;99.90;;;;;;5070136;28;20060;-61
2023/05/20 05:44:39;;;;;;;5.90;2.97;;;12.10;99.90;;;;;;5063348;28;20048;-62
2023/05/20 05:47:05;;;;;;;10.70;3.10;;;12.10;99.90;;;;;;5063469;28;20083;-62
2023/05/20 05:49:31;;;;;;;6.25;2.97;;;12.10;99.90;;;;;;5048287;28;20041;-62
2023/05/20 05:51:57;;;;;;;5.55;2.97;;;12.10;99.90;;;;;;5064313;28;20044;-61
2023/05/20 05:54:23;;;;;;;8.65;3.00;;;12.10;99.90;;;;;;5069487;28;20398;-62
2023/05/20 05:56:50;;;;;;;4.68;2.72;;;12.20;99.90;;;;;;5062528;28;20036;-63
2023/05/20 05:59:16;;;;;;;6.85;2.92;;;12.20;99.90;;;;;;5070765;28;20044;-61
2023/05/20 06:01:42;;;;;;;7.05;2.95;;;12.20;99.90;;;;;;5063570;28;20032;-61
2023/05/20 06:04:07;;;;;;;5.57;2.65;;;12.20;99.90;;;;;;5046428;28;20044;-61
2023/05/20 06:06:33;;;;;;;5.82;2.63;;;12.20;99.90;;;;;;5065970;28;20496;-62
2023/05/20 06:08:59;;;;;;;6.07;2.80;;;12.20;99.90;;;;;;5053508;28;20456;-65
2023/05/20 06:11:25;;;;;;;7.80;3.03;;;12.30;99.90;;;;;;5069540;28;20032;-62
2023/05/20 06:13:51;;;;;;;6.18;2.70;;;12.30;99.90;;;;;;5053313;28;20388;-63
2023/05/20 06:16:16;;;;;;;4.95;2.70;;;12.30;99.90;;;;;;5071027;28;20186;-62
2023/05/20 06:18:42;;;;;;;4.70;2.70;;;12.30;99.90;;;;;;5068419;28;20040;-62
2023/05/20 06:21:08;;;;;;;4.85;2.50;;;12.30;99.90;;;;;;5063692;28;20456;-62
2023/05/20 06:23:34;;;;;;;10.15;3.10;;;12.30;99.90;;;;;;5048348;28;20116;-62
2023/05/20 06:26:00;;;;;;;6.47;2.92;;;12.40;99.90;;;;;;5075242;28;20041;-63
2023/05/20 06:28:26;;;;;;;3.92;2.40;;;12.40;99.90;;;;;;5071404;28;20091;-64
2023/05/20 06:30:53;;;;;;;5.22;3.00;;;12.40;99.90;;;;;;5071088;28;20068;-62
2023/05/20 06:33:24;;;;;;;4.35;2.63;;;12.50;99.90;;;;;;5071424;28;20036;-62
2023/05/20 06:35:51;;;;;;;5.25;3.03;;;12.50;99.90;;;;;;5053298;28;20063;-62
2023/05/20 06:38:17;;;;;;;5.88;2.25;;;12.50;99.90;;;;;;5069616;28;20128;-62
2023/05/20 06:40:43;;;;;;;5.13;2.55;;;12.60;99.90;;;;;;5049942;28;20116;-62
2023/05/20 06:43:08;;;;;;;5.47;2.53;;;12.60;99.90;;;;;;5071145;28;20074;-63
2023/05/20 06:45:34;;;;;;;5.32;2.47;;;12.60;99.90;;;;;;5070343;28;20033;-63
2023/05/20 06:47:59;;;;;;;4.95;2.97;;;12.70;99.90;;;;;;5061342;28;20036;-62
2023/05/20 06:50:27;;;;;;;6.68;2.95;;;12.70;99.90;;;;;;5060979;28;20295;-63
2023/05/20 06:52:52;;;;;;;4.47;2.33;;;12.70;99.90;;;;;;5070260;28;20047;-62
2023/05/20 06:55:18;;;;;;;5.32;2.80;;;12.80;99.90;;;;;;5068209;28;20044;-62
2023/05/20 06:57:44;;;;;;;5.90;2.70;;;12.80;99.90;;;;;;5062194;28;20415;-65
2023/05/20 07:00:12;;;;;;;5.43;2.60;;;12.80;99.90;;;;;;5070762;28;20039;-62
2023/05/20 07:02:38;;;;;;;5.93;2.60;;;12.90;99.90;;;;;;5062748;28;20402;-62
2023/05/20 07:05:04;;;;;;;5.18;2.72;;;12.90;99.90;;;;;;5036683;28;20044;-62
2023/05/20 07:07:30;;;;;;;4.93;2.80;;;12.90;99.90;;;;;;5070564;28;20035;-63
2023/05/20 07:09:56;;;;;;;5.93;2.55;;;13.00;99.90;;;;;;5045760;28;20029;-62
2023/05/20 07:12:22;;;;;;;6.70;2.80;;;13.00;99.90;;;;;;5066238;28;20037;-62
2023/05/20 07:14:47;;;;;;;6.45;2.80;;;13.00;99.90;;;;;;5044193;28;20505;-62
2023/05/20 07:17:13;;;;;;;7.35;2.67;;;13.10;99.90;;;;;;5061307;28;20122;-62
2023/05/20 07:19:39;;;;;;;6.13;2.70;;;13.10;99.90;;;;;;5068766;28;20039;-64
2023/05/20 07:22:05;;;;;;;6.70;2.80;;;13.20;99.90;;;;;;5070937;28;20107;-62
2023/05/20 07:24:30;;;;;;;4.40;2.65;;;13.20;99.90;;;;;;5068668;28;20082;-62
2023/05/20 07:26:56;;;;;;;4.90;2.78;;;13.20;99.90;;;;;;5065430;28;20032;-62
2023/05/20 07:29:22;;;;;;;6.70;2.80;;;13.30;99.90;;;;;;5051317;28;20040;-62
2023/05/20 07:31:47;;;;;;;7.68;2.70;;;13.30;99.90;;;;;;5051039;28;20048;-63
2023/05/20 07:34:13;;;;;;;6.05;2.90;;;13.40;99.90;;;;;;5070217;28;20037;-65
2023/05/20 07:36:38;;;;;;;6.70;3.10;;;13.40;99.90;;;;;;5071561;28;20048;-63
2023/05/20 07:39:04;;;;;;;5.13;2.50;;;13.50;99.90;;;;;;5069524;28;20040;-62
2023/05/20 07:41:30;;;;;;;6.70;3.75;;;13.50;99.90;;;;;;5064433;28;20037;-64
2023/05/20 07:43:56;;;;;;;4.68;3.05;;;13.60;99.90;;;;;;5069378;28;20036;-63
2023/05/20 07:46:21;;;;;;;6.93;2.92;;;13.60;99.90;;;;;;5075066;28;20040;-64
2023/05/20 07:48:47;;;;;;;5.35;2.70;;;13.70;99.90;;;;;;5067988;28;20040;-63
2023/05/20 07:51:13;;;;;;;7.85;2.80;;;13.80;99.90;;;;;;5065944;28;20075;-63
2023/05/20 07:53:38;;;;;;;7.00;2.80;;;13.80;99.90;;;;;;5061923;28;20059;-64
2023/05/20 07:56:04;;;;;;;6.32;3.08;;;13.90;99.90;;;;;;5070083;28;20040;-64
2023/05/20 07:58:31;;;;;;;6.95;3.10;;;13.90;99.90;;;;;;5055869;28;20090;-66
2023/05/20 08:00:56;;;;;;;7.05;3.05;;;14.00;99.90;;;;;;5054664;28;20036;-63
2023/05/20 08:03:22;;;;;;;5.80;2.90;;;14.10;99.90;;;;;;5064970;28;20497;-64
2023/05/20 08:05:48;;;;;;;8.13;2.95;;;14.20;99.90;;;;;;5069606;28;20072;-64
2023/05/20 08:08:14;;;;;;;5.40;3.00;;;14.30;99.90;;;;;;5063168;28;20048;-62
2023/05/20 08:10:40;;;;;;;6.18;2.85;;;14.30;99.90;;;;;;5053346;28;20457;-63
2023/05/20 08:13:06;;;;;;;6.38;2.90;;;14.40;99.90;;;;;;5065711;28;20086;-65
2023/05/20 08:15:31;;;;;;;9.68;3.20;;;14.60;99.90;;;;;;5049077;28;20040;-62
2023/05/20 08:17:57;;;;;;;6.25;2.70;;;14.70;99.90;;;;;;5066881;28;20037;-63
2023/05/20 08:20:25;;;;;;;4.93;2.90;;;14.80;99.90;;;;;;5065039;28;20115;-63
2023/05/20 08:22:51;;;;;;;5.38;3.00;;;15.00;99.90;;;;;;5069709;28;20037;-63
2023/05/20 08:25:17;;;;;;;4.72;2.83;;;15.20;99.90;;;;;;5073367;28;20046;-66
2023/05/20 08:27:42;;;;;;;5.90;2.90;;;15.40;99.90;;;;;;5054054;28;20043;-64
2023/05/20 08:30:09;;;;;;;7.53;2.50;;;15.60;99.90;;;;;;5073473;28;20094;-63
2023/05/20 08:32:36;;;;;;;5.40;2.90;;;15.90;99.90;;;;;;5073458;28;20131;-64
2023/05/20 08:35:02;;;;;;;5.55;2.78;;;16.10;99.90;;;;;;5053690;28;20048;-63
2023/05/20 08:37:28;;;;;;;5.25;2.80;;;16.40;99.90;;;;;;5073629;28;20051;-63
2023/05/20 08:39:54;;;;;;;7.00;2.65;;;16.50;99.90;;;;;;5069422;28;20040;-66
2023/05/20 08:42:23;;;;;;;4.78;2.70;;;16.70;99.90;;;;;;5073278;28;20458;-63
2023/05/20 08:44:51;;;;;;;5.00;2.85;;;16.90;99.90;;;;;;5071653;28;20040;-64
2023/05/20 08:47:20;;;;;;;4.43;2.60;;;17.10;99.90;;;;;;5070141;28;20036;-65
2023/05/20 08:49:50;;;;;;;7.93;2.95;;;17.30;99.90;;;;;;5058656;28;20406;-63
2023/05/20 08:52:19;;;;;;;5.57;2.70;;;17.50;99.90;;;;;;5073094;28;20083;-64
2023/05/20 08:54:48;;;;;;;4.93;2.80;;;17.80;99.90;;;;;;5072700;28;20171;-65
2023/05/20 08:57:14;;;;;;;5.32;2.67;;;17.90;99.90;;;;;;5072675;28;20071;-65
2023/05/20 08:59:44;;;;;;;5.93;2.40;;;18.00;99.90;;;;;;5061938;28;20458;-64
2023/05/20 09:02:10;;;;;;;6.68;2.40;;;18.20;99.90;;;;;;5061421;28;20045;-64
2023/05/20 09:04:36;;;;;;;6.78;2.35;;;18.40;99.90;;;;;;5069177;28;20037;-64
2023/05/20 09:07:02;;;;;;;5.68;2.53;;;18.50;99.90;;;;;;5069401;28;20041;-63
2023/05/20 09:09:29;;;;;;;9.68;2.60;;;18.70;99.90;;;;;;5068878;28;20032;-64
2023/05/20 09:11:55;;;;;;;6.72;2.40;;;18.80;99.90;;;;;;5036818;28;20051;-64
2023/05/20 09:14:22;;;;;;;3.90;2.40;;;19.00;99.80;;;;;;5056369;28;20460;-62
2023/05/20 09:16:48;;;;;;;6.55;2.47;;;19.00;98.90;;;;;;5071412;28;20036;-66
2023/05/20 09:19:13;;;;;;;5.72;2.22;;;19.10;98.90;;;;;;5065317;28;20040;-63
2023/05/20 09:21:40;;;;;;;5.00;2.20;;;19.30;98.70;;;;;;5048661;28;20499;-64
2023/05/20 09:24:06;;;;;;;4.13;2.50;;;19.40;98.40;;;;;;5072029;28;20386;-63
2023/05/20 09:26:32;;;;;;;3.40;2.33;;;19.60;98.50;;;;;;5076909;28;20036;-63
2023/05/20 09:28:58;;;;;;;6.47;2.42;;;19.90;98.40;;;;;;5067525;28;20048;-63
2023/05/20 09:31:32;;;;;;;3.90;2.00;;;20.10;97.90;;;;;;5067203;28;20510;-65
2023/05/20 09:33:59;;;;;;;7.63;2.20;;;20.30;96.70;;;;;;5064560;28;21770;-63
2023/05/20 09:36:28;;;;;;;3.80;2.03;;;20.50;97.00;;;;;;5037489;28;20044;-63
2023/05/20 09:38:58;;;;;;;3.40;2.00;;;20.60;96.30;;;;;;5058771;28;20043;-63
2023/05/20 09:41:32;;;;;;;5.75;2.30;;;20.70;95.40;;;;;;5062900;28;20063;-60
2023/05/20 09:43:58;;;;;;;5.03;2.20;;;20.80;94.80;;;;;;5052240;28;20414;-62
2023/05/20 09:46:26;;;;;;;4.90;1.90;;;20.90;94.70;;;;;;5061096;28;20033;-61
2023/05/20 09:48:52;;;;;;;5.15;2.20;;;20.90;94.00;;;;;;5047253;28;20033;-61
2023/05/20 09:51:20;;;;;;;7.32;2.15;;;20.90;93.90;;;;;;5052682;28;20048;-61
2023/05/20 09:53:46;;;;;;;7.80;2.20;;;21.00;93.50;;;;;;5064259;28;20076;-61
2023/05/20 09:56:12;;;;;;;6.00;2.00;;;21.10;93.30;;;;;;5050034;28;20126;-62
2023/05/20 09:58:39;;;;;;;3.72;2.15;;;21.30;92.90;;;;;;5068974;28;20090;-61
2023/05/20 10:01:06;;;;;;;7.15;2.40;;;21.20;92.60;;;;;;5068762;28;20461;-61
2023/05/20 10:03:32;;;;;;;6.95;2.42;;;21.20;92.10;;;;;;5053437;28;20048;-62
2023/05/20 10:06:24;;;;;;;6.13;2.30;;;21.20;91.40;;;;;;5052681;28;20051;-63
2023/05/20 10:09:11;;;;;;;5.07;2.20;;;21.20;90.30;;;;;;5046573;28;20036;-62
2023/05/20 10:11:46;;;;;;;2.72;1.98;;;21.30;90.40;;;;;;5043860;28;20037;-65
2023/05/20 10:14:31;;;;;;;4.47;2.10;;;21.50;91.10;;;;;;5065562;28;20394;-63
2023/05/20 10:17:06;;;;;;;5.90;2.22;;;21.70;91.00;;;;;;5050683;28;20063;-64
2023/05/20 10:19:33;;;;;;;6.38;2.30;;;21.90;90.30;;;;;;5068502;28;20119;-63
2023/05/20 10:22:01;;;;;;;4.25;2.10;;;22.00;88.60;;;;;;5057957;28;20044;-63
2023/05/20 10:25:05;;;;;;;6.32;2.45;;;22.10;87.00;;;;;;5056914;28;20504;-64
2023/05/20 10:27:45;;;;;;;7.82;2.28;;;21.90;82.60;;;;;;5067105;28;20064;-63
2023/05/20 10:30:21;;;;;;;5.13;2.20;;;21.90;84.20;;;;;;5065269;28;20123;-63
2023/05/20 10:32:56;;;;;;;6.28;2.30;;;21.80;84.60;;;;;;5070268;28;20128;-62
2023/05/20 10:35:25;;;;;;;4.22;2.08;;;21.90;86.30;;;;;;5060216;28;20033;-64
2023/05/20 10:37:53;;;;;;;10.23;2.55;;;22.00;84.80;;;;;;5062692;28;20098;-64
2023/05/20 10:40:20;;;;;;;5.72;2.28;;;21.90;83.50;;;;;;5069227;28;20044;-63
2023/05/20 10:42:46;;;;;;;4.78;2.30;;;21.80;83.00;;;;;;5053870;28;20092;-64
2023/05/20 10:45:27;;;;;;;6.55;2.15;;;21.70;82.60;;;;;;5062568;28;20036;-61
2023/05/20 10:47:57;;;;;;;3.78;1.90;;;21.50;82.20;;;;;;5051220;28;20037;-64
2023/05/20 10:50:35;;;;;;;6.47;2.03;;;21.40;82.60;;;;;;5063750;28;20047;-63
2023/05/20 10:53:11;;;;;;;5.60;2.13;;;21.20;82.20;;;;;;5068404;28;20055;-63
2023/05/20 10:55:38;;;;;;;4.88;2.20;;;21.10;84.40;;;;;;5061081;28;20410;-64
2023/05/20 10:58:05;;;;;;;5.63;2.25;;;21.30;85.40;;;;;;5061856;28;20425;-64
2023/05/20 11:00:38;;;;;;;3.67;2.05;;;21.50;85.20;;;;;;5065025;28;20028;-63
2023/05/20 11:03:05;;;;;;;4.57;2.10;;;21.90;85.70;;;;;;5071138;28;20070;-64
2023/05/20 11:05:31;;;;;;;8.55;2.10;;;22.10;84.50;;;;;;5048816;28;20032;-63
2023/05/20 11:08:05;;;;;;;6.60;2.22;;;22.10;83.10;;;;;;5060957;28;20402;-64
2023/05/20 11:10:33;;;;;;;7.63;2.13;;;21.90;81.40;;;;;;5070514;28;20494;-64
2023/05/20 11:13:01;;;;;;;3.10;2.10;;;21.60;81.00;;;;;;5067844;28;20512;-64
2023/05/20 11:15:27;;;;;;;3.00;1.80;;;21.60;81.50;;;;;;5068226;28;20040;-63
2023/05/20 11:17:54;;;;;;;8.15;2.17;;;21.80;82.80;;;;;;5064911;28;20040;-64
2023/05/20 11:20:21;;;;;;;5.13;2.40;;;22.10;83.40;;;;;;5069371;28;20037;-64
2023/05/20 11:22:52;;;;;;;3.75;2.20;;;22.50;83.20;;;;;;5061729;28;20037;-63
2023/05/20 11:25:24;;;;;;;6.90;1.98;;;22.80;83.10;;;;;;5069378;28;20391;-64
2023/05/20 11:27:50;;;;;;;4.00;2.00;;;23.00;81.30;;;;;;5052176;28;20044;-64
2023/05/20 11:30:20;;;;;;;5.47;2.30;;;22.90;79.10;;;;;;5062468;28;20033;-64
2023/05/20 11:32:58;;;;;;;4.63;2.20;;;22.90;78.70;;;;;;5051316;22;20145;-77
2023/05/20 11:35:27;;;;;;;3.67;2.17;;;22.70;75.90;;;;;;5001197;28;20052;-77
2023/05/20 11:38:05;;;;;;;8.05;2.00;;;22.40;75.70;;;;;;5013358;28;20045;-77
2023/05/20 11:40:32;;;;;;;5.50;2.08;;;22.50;75.30;;;;;;5010914;28;20429;-76
2023/05/20 11:42:59;;;;;;;4.00;1.95;;;22.50;76.80;;;;;;5009796;28;20660;-75
2023/05/20 11:45:26;;;;;;;4.32;2.00;;;22.60;76.90;;;;;;5006247;28;20037;-75
2023/05/20 11:48:18;;;;;;;2.20;1.90;;;22.50;76.60;;;;;;4991190;28;20092;-75
2023/05/20 11:50:45;;;;;;;3.47;1.92;;;22.70;76.60;;;;;;5004356;28;20050;-75
2023/05/20 11:53:22;;;;;;;2.50;1.73;;;22.80;76.30;;;;;;4987029;28;20046;-75
2023/05/20 11:55:57;;;;;;;4.47;2.05;;;22.90;75.10;;;;;;4988195;28;20033;-75
2023/05/20 11:58:29;;;;;;;3.88;1.98;;;23.00;75.40;;;;;;4994820;28;20488;-76
2023/05/20 12:00:54;;;;;;;;;;;23.10;76.00;;;;;;4997916;28;20034;-75
2023/05/20 12:03:21;;;;;;;6.13;2.00;;;23.30;76.20;;;;;;4972755;28;20166;-76
2023/05/20 12:05:47;;;;;;;3.53;2.08;;;23.40;75.90;;;;;;4991620;28;20038;-76
2023/05/20 12:08:13;;;;;;;5.85;2.20;;;23.50;74.60;;;;;;4996625;28;20050;-76
2023/05/20 12:10:38;;;;;;;7.10;2.17;;;23.60;74.00;;;;;;4996411;28;20042;-75
2023/05/20 12:13:07;;;;;;;5.68;2.00;;;23.40;72.60;;;;;;4995876;28;20100;-75
2023/05/20 12:15:34;;;;;;;3.03;1.98;;;23.20;73.00;;;;;;4996780;28;20049;-75
2023/05/20 12:18:00;;;;;;;12.75;2.10;;;23.10;72.60;;;;;;4996041;28;20486;-75
2023/05/20 12:20:26;;;;;;;3.45;2.38;;;23.10;73.30;;;;;;4996585;28;20042;-75
2023/05/20 12:22:51;;;;;;;4.75;1.90;;;23.10;73.70;;;;;;5008773;28;20070;-76
2023/05/20 12:25:20;;;;;;;3.28;1.92;;;23.20;73.60;;;;;;4990614;28;20499;-75
2023/05/20 12:27:47;;;;;;;3.67;2.00;;;23.30;73.20;;;;;;4988050;28;20038;-75
2023/05/20 12:30:17;;;;;;;3.53;2.08;;;23.30;71.90;;;;;;4995779;28;20038;-74
2023/05/20 12:32:44;;;;;;;3.75;1.92;;;23.20;70.60;;;;;;4998049;28;20044;-75
2023/05/20 12:35:10;;;;;;;4.38;1.98;;;23.10;71.50;;;;;;5006463;28;20510;-76
2023/05/20 12:37:40;;;;;;;5.15;1.90;;;23.00;71.10;;;;;;4989739;28;20064;-76
2023/05/20 12:40:07;;;;;;;4.47;2.20;;;22.70;71.30;;;;;;4990361;28;20045;-76
2023/05/20 12:42:40;;;;;;;3.33;1.80;;;22.50;72.80;;;;;;5011148;28;20084;-76
2023/05/20 12:45:06;;;;;;;4.43;2.20;;;22.60;74.00;;;;;;4993093;28;20065;-76